createdAt,value
2023-03-18T00:01:36.172Z,11.90
2023-03-18T00:04:04.832Z,11.95
2023-03-18T00:06:33.205Z,11.94
2023-03-18T00:09:02.461Z,11.87
2023-03-18T00:11:32.426Z,11.90
2023-03-18T00:14:00.893Z,11.88
2023-03-18T00:16:29.403Z,11.82
2023-03-18T00:18:57.742Z,11.86
2023-03-18T00:21:27.122Z,11.89
2023-03-18T00:23:56.664Z,11.91
2023-03-18T00:26:25.717Z,11.91
2023-03-18T00:28:57.857Z,11.88
2023-03-18T00:31:27.721Z,11.86
2023-03-18T00:33:56.610Z,11.84
2023-03-18T00:36:26.395Z,11.88
2023-03-18T00:38:58.020Z,11.81
2023-03-18T00:41:28.229Z,11.88
2023-03-18T00:43:59.110Z,11.91
2023-03-18T00:46:29.953Z,11.82
2023-03-18T00:49:02.132Z,11.85
2023-03-18T00:51:33.303Z,11.86
2023-03-18T00:54:04.628Z,11.89
2023-03-18T00:56:34.069Z,11.87
2023-03-18T00:59:04.376Z,11.87
2023-03-18T01:01:32.832Z,11.87
2023-03-18T01:04:02.767Z,11.86
2023-03-18T01:06:34.025Z,11.71
2023-03-18T01:09:05.104Z,11.65
2023-03-18T01:11:34.483Z,11.68
2023-03-18T01:14:04.742Z,11.74
2023-03-18T01:16:33.196Z,11.75
2023-03-18T01:19:01.616Z,11.77
2023-03-18T01:21:30.016Z,11.73
2023-03-18T01:24:01.798Z,11.73
2023-03-18T01:26:31.699Z,11.71
2023-03-18T01:29:03.783Z,11.67
2023-03-18T01:31:34.661Z,11.60
2023-03-18T01:34:08.088Z,11.64
2023-03-18T01:36:46.521Z,11.60
2023-03-18T01:39:15.598Z,11.61
2023-03-18T01:41:44.684Z,11.58
2023-03-18T01:44:21.915Z,11.56
2023-03-18T01:46:53.223Z,11.52
2023-03-18T01:49:27.155Z,11.51
2023-03-18T01:51:58.969Z,11.49
2023-03-18T01:54:30.348Z,11.48
2023-03-18T01:56:59.108Z,11.40
2023-03-18T01:59:31.716Z,11.32
2023-03-18T02:02:06.607Z,11.23
2023-03-18T02:04:41.220Z,11.22
2023-03-18T02:07:17.054Z,11.18
2023-03-18T02:09:46.335Z,11.13
2023-03-18T02:12:18.168Z,11.10
2023-03-18T02:14:48.249Z,11.03
2023-03-18T02:17:20.442Z,10.93
2023-03-18T02:20:01.320Z,11.06
2023-03-18T02:22:34.287Z,11.06
2023-03-18T02:25:23.190Z,10.91
2023-03-18T02:27:59.234Z,10.92
2023-03-18T02:30:36.727Z,11.00
2023-03-18T02:33:08.056Z,11.02
2023-03-18T02:35:38.848Z,10.92
2023-03-18T02:38:07.319Z,10.83
2023-03-18T02:40:39.729Z,10.87
2023-03-18T02:43:23.445Z,10.72
2023-03-18T02:46:13.065Z,10.61
2023-03-18T02:48:46.314Z,10.57
2023-03-18T02:51:17.577Z,10.65
2023-03-18T02:53:46.939Z,10.68
2023-03-18T02:56:16.309Z,10.72
2023-03-18T02:58:46.692Z,10.76
2023-03-18T03:01:17.568Z,10.74
2023-03-18T03:03:46.095Z,10.71
2023-03-18T03:06:15.497Z,10.66
2023-03-18T03:08:44.766Z,10.64
2023-03-18T03:11:13.231Z,10.57
2023-03-18T03:13:45.336Z,10.64
2023-03-18T03:16:17.867Z,10.78
2023-03-18T03:18:46.325Z,10.72
2023-03-18T03:21:16.239Z,10.59
2023-03-18T03:23:45.419Z,10.57
2023-03-18T03:26:16.728Z,10.50
2023-03-18T03:28:45.166Z,10.56
2023-03-18T03:31:16.966Z,10.54
2023-03-18T03:33:46.096Z,10.51
2023-03-18T03:36:18.066Z,10.52
2023-03-18T03:38:47.061Z,10.47
2023-03-18T03:41:15.992Z,10.51
2023-03-18T03:43:45.782Z,10.50
2023-03-18T03:46:14.475Z,10.54
2023-03-18T03:48:44.940Z,10.51
2023-03-18T03:51:15.875Z,10.49
2023-03-18T03:53:46.281Z,10.24
2023-03-18T03:56:15.715Z,10.41
2023-03-18T03:58:44.831Z,10.43
2023-03-18T04:01:13.667Z,10.37
2023-03-18T04:03:44.471Z,10.43
2023-03-18T04:06:13.351Z,10.42
2023-03-18T04:08:48.466Z,10.35
2023-03-18T04:11:17.297Z,10.35
2023-03-18T04:13:45.790Z,10.34
2023-03-18T04:16:14.533Z,10.29
2023-03-18T04:18:44.617Z,10.25
2023-03-18T04:21:13.288Z,10.19
2023-03-18T04:23:46.603Z,10.18
2023-03-18T04:26:15.014Z,10.14
2023-03-18T04:28:43.660Z,10.09
2023-03-18T04:31:15.680Z,10.09
2023-03-18T04:33:45.861Z,10.15
2023-03-18T04:36:14.229Z,10.14
2023-03-18T04:38:43.543Z,10.12
2023-03-18T04:41:12.226Z,10.11
2023-03-18T04:43:40.936Z,10.03
2023-03-18T04:46:10.262Z,9.95
2023-03-18T04:48:39.008Z,9.97
2023-03-18T04:51:12.620Z,9.96
2023-03-18T04:53:42.101Z,9.86
2023-03-18T04:56:11.805Z,9.86
2023-03-18T04:58:48.660Z,9.90
2023-03-18T05:01:21.615Z,9.86
2023-03-18T05:03:50.351Z,9.85
2023-03-18T05:06:28.123Z,9.81
2023-03-18T05:09:00.084Z,9.79
2023-03-18T05:11:34.286Z,9.76
2023-03-18T05:14:11.962Z,9.76
2023-03-18T05:16:45.510Z,9.74
2023-03-18T05:19:14.586Z,9.72
2023-03-18T05:21:51.582Z,9.82
2023-03-18T05:24:20.805Z,9.85
2023-03-18T05:26:49.606Z,9.91
2023-03-18T05:29:22.150Z,9.93
2023-03-18T05:32:12.741Z,9.93
2023-03-18T05:34:42.468Z,9.95
2023-03-18T05:37:15.996Z,9.96
2023-03-18T05:39:59.368Z,10.00
2023-03-18T05:42:29.805Z,10.01
2023-03-18T05:44:58.735Z,10.03
2023-03-18T05:47:27.880Z,10.00
2023-03-18T05:50:14.384Z,9.98
2023-03-18T05:52:44.558Z,10.02
2023-03-18T05:55:20.346Z,9.97
2023-03-18T05:57:49.244Z,9.97
2023-03-18T06:00:20.235Z,10.01
2023-03-18T06:02:52.415Z,10.04
2023-03-18T06:05:21.129Z,10.03
2023-03-18T06:07:51.482Z,10.09
2023-03-18T06:10:20.898Z,10.15
2023-03-18T06:12:50.666Z,10.14
2023-03-18T06:15:21.448Z,10.20
2023-03-18T06:17:50.554Z,10.22
2023-03-18T06:20:19.882Z,10.20
2023-03-18T06:22:50.628Z,10.15
2023-03-18T06:25:22.205Z,10.20
2023-03-18T06:27:52.273Z,10.20
2023-03-18T06:30:24.110Z,10.24
2023-03-18T06:32:55.094Z,10.19
2023-03-18T06:35:28.239Z,10.21
2023-03-18T06:37:58.179Z,10.22
2023-03-18T06:40:26.725Z,10.18
2023-03-18T06:42:56.523Z,10.16
2023-03-18T06:45:37.564Z,10.13
2023-03-18T06:48:09.654Z,10.16
2023-03-18T06:50:43.187Z,10.14
2023-03-18T06:53:23.404Z,10.18
2023-03-18T06:55:53.964Z,10.26
2023-03-18T06:58:25.995Z,10.31
2023-03-18T07:01:04.127Z,10.37
2023-03-18T07:03:38.796Z,10.39
2023-03-18T07:06:09.796Z,10.42
2023-03-18T07:08:41.254Z,10.36
2023-03-18T07:11:09.987Z,10.41
2023-03-18T07:13:41.705Z,10.36
2023-03-18T07:16:18.243Z,10.38
2023-03-18T07:18:46.883Z,10.54
2023-03-18T07:21:16.838Z,10.69
2023-03-18T07:23:47.275Z,10.71
2023-03-18T07:26:15.715Z,10.74
2023-03-18T07:28:44.178Z,10.80
2023-03-18T07:31:13.123Z,10.79
2023-03-18T07:33:41.766Z,10.80
2023-03-18T07:36:11.045Z,11.10
2023-03-18T07:38:40.097Z,11.37
2023-03-18T07:41:10.107Z,11.67
2023-03-18T07:43:38.645Z,11.71
2023-03-18T07:46:07.074Z,11.81
2023-03-18T07:48:35.557Z,12.01
2023-03-18T07:51:04.051Z,12.06
2023-03-18T07:53:33.793Z,12.40
2023-03-18T07:56:02.166Z,12.39
2023-03-18T07:58:32.763Z,12.74
2023-03-18T08:01:01.241Z,12.56
2023-03-18T08:03:29.893Z,12.59
2023-03-18T08:05:58.413Z,12.71
2023-03-18T08:08:26.978Z,12.74
2023-03-18T08:10:58.677Z,13.56
2023-03-18T08:13:27.451Z,14.76
2023-03-18T08:15:57.412Z,15.71
2023-03-18T08:18:26.556Z,16.54
2023-03-18T08:20:55.440Z,17.46
2023-03-18T08:23:24.079Z,17.30
2023-03-18T08:25:53.018Z,17.89
2023-03-18T08:28:21.396Z,18.53
2023-03-18T08:30:49.819Z,18.86
2023-03-18T08:33:19.652Z,19.16
2023-03-18T08:35:49.569Z,18.67
2023-03-18T08:38:18.185Z,18.95
2023-03-18T08:40:47.500Z,19.20
2023-03-18T08:43:16.066Z,19.32
2023-03-18T08:45:44.864Z,19.16
2023-03-18T08:48:13.318Z,19.70
2023-03-18T08:50:43.320Z,19.93
2023-03-18T08:53:13.108Z,20.22
2023-03-18T08:55:44.665Z,19.74
2023-03-18T08:58:13.167Z,20.38
2023-03-18T09:00:42.961Z,19.73
2023-03-18T09:03:11.691Z,20.37
2023-03-18T09:05:40.391Z,20.61
2023-03-18T09:08:10.361Z,20.42
2023-03-18T09:10:38.882Z,20.13
2023-03-18T09:13:08.285Z,20.24
2023-03-18T09:15:36.838Z,20.04
2023-03-18T09:18:11.347Z,20.14
2023-03-18T09:20:41.005Z,20.78
2023-03-18T09:23:11.515Z,21.03
2023-03-18T09:25:40.351Z,20.74
2023-03-18T09:28:08.795Z,20.83
2023-03-18T09:30:38.122Z,21.49
2023-03-18T09:33:07.729Z,21.01
2023-03-18T09:35:37.194Z,21.10
2023-03-18T09:38:06.728Z,20.96
2023-03-18T09:40:39.463Z,21.08
2023-03-18T09:43:24.834Z,21.17
2023-03-18T09:46:03.176Z,20.83
2023-03-18T09:48:58.242Z,21.01
2023-03-18T09:51:39.820Z,20.58
2023-03-18T09:54:14.101Z,20.24
2023-03-18T09:56:46.768Z,20.60
2023-03-18T09:59:22.689Z,20.77
2023-03-18T10:01:55.318Z,20.88
2023-03-18T10:04:27.957Z,20.73
2023-03-18T10:07:01.412Z,21.06
2023-03-18T10:09:35.374Z,20.89
2023-03-18T10:12:15.142Z,21.02
2023-03-18T10:14:50.028Z,21.04
2023-03-18T10:17:22.800Z,20.94
2023-03-18T10:19:55.657Z,21.03
2023-03-18T10:22:57.672Z,21.33
2023-03-18T10:25:35.067Z,21.16
2023-03-18T10:28:34.785Z,21.43
2023-03-18T10:31:15.436Z,21.74
2023-03-18T10:33:49.833Z,21.34
2023-03-18T10:36:23.948Z,21.23
2023-03-18T10:38:56.245Z,21.02
2023-03-18T10:41:30.359Z,20.95
2023-03-18T10:44:04.932Z,20.45
2023-03-18T10:46:35.724Z,20.34
2023-03-18T10:49:11.432Z,20.20
2023-03-18T10:51:46.502Z,20.51
2023-03-18T10:54:24.233Z,20.70
2023-03-18T10:56:53.769Z,20.50
2023-03-18T10:59:25.836Z,20.46
2023-03-18T11:02:01.008Z,20.54
2023-03-18T11:04:32.039Z,20.32
2023-03-18T11:07:04.344Z,20.67
2023-03-18T11:09:36.392Z,20.75
2023-03-18T11:12:07.170Z,20.46
2023-03-18T11:14:38.433Z,20.46
2023-03-18T11:17:20.824Z,20.36
2023-03-18T11:20:00.081Z,20.65
2023-03-18T11:22:30.208Z,20.75
2023-03-18T11:25:15.021Z,21.07
2023-03-18T11:27:47.189Z,21.48
2023-03-18T11:30:34.026Z,21.37
2023-03-18T11:33:07.342Z,21.08
2023-03-18T11:35:41.984Z,20.69
2023-03-18T11:38:20.769Z,20.69
2023-03-18T11:40:49.176Z,20.79
2023-03-18T11:43:21.616Z,20.93
2023-03-18T11:45:58.356Z,20.94
2023-03-18T11:48:36.574Z,21.05
2023-03-18T11:51:36.728Z,20.76
2023-03-18T11:54:24.967Z,20.73
2023-03-18T11:56:58.787Z,20.55
2023-03-18T11:59:45.481Z,19.92
2023-03-18T12:02:47.738Z,19.73
2023-03-18T12:05:40.580Z,19.47
2023-03-18T12:08:20.714Z,19.28
2023-03-18T12:10:56.381Z,19.16
2023-03-18T12:13:41.027Z,19.14
2023-03-18T12:16:20.281Z,19.05
2023-03-18T12:19:12.649Z,18.94
2023-03-18T12:22:08.283Z,18.99
2023-03-18T12:25:03.491Z,18.82
2023-03-18T12:27:43.994Z,18.96
2023-03-18T12:30:45.093Z,19.16
2023-03-18T12:33:29.340Z,19.11
2023-03-18T12:36:12.483Z,19.17
2023-03-18T12:39:09.265Z,19.58
2023-03-18T12:41:52.613Z,19.52
2023-03-18T12:44:38.901Z,19.72
2023-03-18T12:47:13.008Z,19.57
2023-03-18T12:49:46.274Z,19.65
2023-03-18T12:52:30.214Z,19.67
2023-03-18T12:55:06.059Z,19.84
2023-03-18T12:57:43.530Z,19.73
2023-03-18T13:00:24.694Z,19.69
2023-03-18T13:03:23.490Z,19.60
2023-03-18T13:05:56.983Z,19.50
2023-03-18T13:08:54.261Z,19.22
2023-03-18T13:11:55.719Z,19.25
2023-03-18T13:14:32.771Z,19.33
2023-03-18T13:17:02.234Z,19.21
2023-03-18T13:19:31.364Z,19.25
2023-03-18T13:22:16.827Z,19.04
2023-03-18T13:25:17.901Z,19.19
2023-03-18T13:28:45.748Z,19.19
2023-03-18T13:31:28.880Z,18.95
2023-03-18T13:34:36.067Z,18.98
2023-03-18T13:37:31.800Z,18.84
2023-03-18T13:40:38.652Z,18.60
2023-03-18T13:43:13.511Z,18.72
2023-03-18T13:45:45.931Z,18.72
2023-03-18T13:48:18.308Z,18.69
2023-03-18T13:50:48.883Z,18.88
2023-03-18T13:53:26.682Z,18.98
2023-03-18T13:56:04.997Z,19.14
2023-03-18T13:58:37.474Z,18.86
2023-03-18T14:01:28.695Z,18.89
2023-03-18T14:04:18.722Z,18.95
2023-03-18T14:06:54.373Z,19.09
2023-03-18T14:09:48.954Z,19.15
2023-03-18T14:12:42.206Z,19.16
2023-03-18T14:15:39.616Z,19.09
2023-03-18T14:18:27.623Z,18.78
2023-03-18T14:21:02.674Z,18.70
2023-03-18T14:23:39.355Z,18.77
2023-03-18T14:26:19.565Z,18.71
2023-03-18T14:28:54.919Z,18.69
2023-03-18T14:31:57.805Z,18.69
2023-03-18T14:34:33.138Z,18.56
2023-03-18T14:37:27.891Z,18.68
2023-03-18T14:40:02.200Z,18.73
2023-03-18T14:42:46.045Z,18.79
2023-03-18T14:45:22.998Z,19.00
2023-03-18T14:47:53.686Z,19.03
2023-03-18T14:50:34.790Z,19.23
2023-03-18T14:53:12.348Z,18.96
2023-03-18T14:55:41.606Z,18.91
2023-03-18T14:58:17.921Z,18.74
2023-03-18T15:00:51.667Z,18.90
2023-03-18T15:03:24.946Z,18.75
2023-03-18T15:05:58.093Z,18.65
2023-03-18T15:08:44.638Z,18.61
2023-03-18T15:11:16.605Z,18.66
2023-03-18T15:13:46.528Z,18.70
2023-03-18T15:16:21.892Z,18.69
2023-03-18T15:18:54.840Z,18.79
2023-03-18T15:21:28.732Z,18.72
2023-03-18T15:24:01.970Z,18.53
2023-03-18T15:26:32.695Z,18.40
2023-03-18T15:29:09.974Z,18.35
2023-03-18T15:31:46.197Z,18.24
2023-03-18T15:34:20.992Z,18.23
2023-03-18T15:36:55.515Z,18.00
2023-03-18T15:39:34.028Z,18.02
2023-03-18T15:42:06.789Z,18.02
2023-03-18T15:44:39.308Z,17.93
2023-03-18T15:47:16.700Z,17.90
2023-03-18T15:49:54.551Z,17.91
2023-03-18T15:52:27.012Z,17.80
2023-03-18T15:54:55.707Z,17.65
2023-03-18T15:57:31.008Z,17.65
2023-03-18T16:00:00.257Z,17.71
2023-03-18T16:02:31.661Z,17.64
2023-03-18T16:05:09.395Z,17.63
2023-03-18T16:07:38.715Z,17.50
2023-03-18T16:10:09.436Z,17.50
2023-03-18T16:12:39.615Z,17.50
2023-03-18T16:15:16.328Z,17.47
2023-03-18T16:17:48.992Z,17.54
2023-03-18T16:20:21.573Z,17.45
2023-03-18T16:22:50.272Z,17.42
2023-03-18T16:25:19.124Z,17.42
2023-03-18T16:27:50.697Z,17.39
2023-03-18T16:30:22.670Z,17.46
2023-03-18T16:32:53.395Z,17.46
2023-03-18T16:35:24.601Z,17.44
2023-03-18T16:37:54.500Z,17.45
2023-03-18T16:40:25.437Z,17.32
2023-03-18T16:42:54.345Z,17.39
2023-03-18T16:45:28.683Z,17.25
2023-03-18T16:48:02.285Z,17.31
2023-03-18T16:50:34.943Z,17.34
2023-03-18T16:53:17.583Z,17.35
2023-03-18T16:55:47.534Z,17.43
2023-03-18T16:58:19.704Z,17.36
2023-03-18T17:00:49.783Z,17.45
2023-03-18T17:03:21.168Z,17.51
2023-03-18T17:05:52.085Z,17.53
2023-03-18T17:08:22.120Z,17.38
2023-03-18T17:10:53.952Z,17.37
2023-03-18T17:13:25.978Z,17.22
2023-03-18T17:15:54.882Z,17.12
2023-03-18T17:18:25.773Z,17.06
2023-03-18T17:20:54.183Z,16.92
2023-03-18T17:23:25.386Z,16.85
2023-03-18T17:25:56.871Z,16.80
2023-03-18T17:28:33.112Z,16.79
2023-03-18T17:31:02.177Z,16.69
2023-03-18T17:33:33.944Z,16.66
2023-03-18T17:36:02.772Z,16.61
2023-03-18T17:38:32.262Z,16.58
2023-03-18T17:41:04.001Z,16.50
2023-03-18T17:43:35.182Z,16.45
2023-03-18T17:46:06.194Z,16.33
2023-03-18T17:48:37.856Z,16.28
2023-03-18T17:51:09.206Z,16.17
2023-03-18T17:53:40.337Z,16.10
2023-03-18T17:56:12.431Z,16.00
2023-03-18T17:58:46.111Z,15.95
2023-03-18T18:01:19.955Z,15.86
2023-03-18T18:03:50.030Z,15.84
2023-03-18T18:06:21.007Z,15.76
2023-03-18T18:08:50.370Z,15.74
2023-03-18T18:11:22.910Z,15.69
2023-03-18T18:13:53.219Z,15.64
2023-03-18T18:16:24.222Z,15.62
2023-03-18T18:18:54.147Z,15.58
2023-03-18T18:21:25.049Z,15.52
2023-03-18T18:23:53.573Z,15.47
2023-03-18T18:26:22.974Z,15.40
2023-03-18T18:28:53.448Z,15.33
2023-03-18T18:31:23.980Z,15.31
2023-03-18T18:33:55.929Z,15.21
2023-03-18T18:36:28.120Z,15.20
2023-03-18T18:38:56.781Z,15.17
2023-03-18T18:41:25.938Z,15.16
2023-03-18T18:43:55.649Z,15.18
2023-03-18T18:46:25.115Z,15.17
2023-03-18T18:48:55.309Z,15.14
2023-03-18T18:51:26.058Z,15.13
2023-03-18T18:53:55.763Z,15.09
2023-03-18T18:56:35.353Z,15.04
2023-03-18T18:59:22.259Z,15.01
2023-03-18T19:01:51.471Z,14.96
2023-03-18T19:04:22.822Z,15.00
2023-03-18T19:06:52.445Z,14.94
2023-03-18T19:09:24.425Z,14.86
2023-03-18T19:11:53.837Z,14.82
2023-03-18T19:14:25.540Z,14.81
2023-03-18T19:16:56.465Z,14.78
2023-03-18T19:19:30.534Z,14.71
2023-03-18T19:21:59.295Z,14.68
2023-03-18T19:24:30.996Z,14.65
2023-03-18T19:27:02.592Z,14.64
2023-03-18T19:29:32.688Z,14.63
2023-03-18T19:32:01.411Z,14.61
2023-03-18T19:34:32.364Z,14.56
2023-03-18T19:37:02.889Z,14.51
2023-03-18T19:39:31.816Z,14.45
2023-03-18T19:42:00.369Z,14.44
2023-03-18T19:44:28.931Z,14.42
2023-03-18T19:47:01.126Z,14.40
2023-03-18T19:49:33.712Z,14.35
2023-03-18T19:52:03.145Z,14.27
2023-03-18T19:54:34.225Z,14.25
2023-03-18T19:57:06.907Z,14.22
2023-03-18T19:59:39.651Z,14.19
2023-03-18T20:02:21.964Z,14.17
2023-03-18T20:04:53.048Z,14.14
2023-03-18T20:07:24.288Z,14.15
2023-03-18T20:09:53.553Z,14.14
2023-03-18T20:12:26.876Z,14.09
2023-03-18T20:14:55.401Z,14.04
2023-03-18T20:17:32.480Z,13.99
2023-03-18T20:20:02.661Z,13.95
2023-03-18T20:22:34.945Z,13.88
2023-03-18T20:25:06.094Z,13.79
2023-03-18T20:27:34.484Z,13.81
2023-03-18T20:30:03.373Z,13.76
2023-03-18T20:32:31.835Z,13.77
2023-03-18T20:35:03.597Z,13.77
2023-03-18T20:37:35.005Z,13.73
2023-03-18T20:40:04.919Z,13.80
2023-03-18T20:42:33.865Z,13.79
2023-03-18T20:45:02.298Z,13.83
2023-03-18T20:47:30.701Z,13.85
2023-03-18T20:49:59.122Z,13.82
2023-03-18T20:52:31.273Z,13.82
2023-03-18T20:55:00.330Z,13.78
2023-03-18T20:57:28.721Z,13.73
2023-03-18T20:59:58.037Z,13.70
2023-03-18T21:02:33.021Z,13.64
2023-03-18T21:05:02.734Z,13.61
2023-03-18T21:07:32.532Z,13.54
2023-03-18T21:10:00.981Z,13.50
2023-03-18T21:12:29.730Z,13.44
2023-03-18T21:15:01.099Z,13.53
2023-03-18T21:17:29.929Z,13.48
2023-03-18T21:20:11.078Z,13.50
2023-03-18T21:22:46.490Z,13.53
2023-03-18T21:25:20.710Z,13.60
2023-03-18T21:27:49.950Z,13.60
2023-03-18T21:30:21.523Z,13.59
2023-03-18T21:32:51.256Z,13.64
2023-03-18T21:35:23.133Z,13.61
2023-03-18T21:37:54.184Z,13.58
2023-03-18T21:40:27.404Z,13.59
2023-03-18T21:42:56.090Z,13.65
2023-03-18T21:45:24.958Z,13.59
2023-03-18T21:47:53.696Z,13.67
2023-03-18T21:50:25.250Z,13.63
2023-03-18T21:52:56.149Z,13.64
2023-03-18T21:55:24.610Z,13.67
2023-03-18T21:57:53.029Z,13.58
2023-03-18T22:00:22.508Z,13.58
2023-03-18T22:02:51.204Z,13.57
2023-03-18T22:05:23.030Z,13.61
2023-03-18T22:07:52.049Z,13.64
2023-03-18T22:10:24.483Z,13.66
2023-03-18T22:12:53.251Z,13.61
2023-03-18T22:15:46.714Z,13.60
2023-03-18T22:18:16.008Z,13.55
2023-03-18T22:20:47.373Z,13.42
2023-03-18T22:23:19.889Z,13.52
2023-03-18T22:25:52.010Z,13.51
2023-03-18T22:28:20.808Z,13.45
2023-03-18T22:30:52.423Z,13.50
2023-03-18T22:33:25.151Z,13.49
2023-03-18T22:35:54.017Z,13.51
2023-03-18T22:38:24.852Z,13.47
2023-03-18T22:40:57.734Z,13.44
2023-03-18T22:43:33.525Z,13.44
2023-03-18T22:46:05.343Z,13.39
2023-03-18T22:48:34.355Z,13.27
2023-03-18T22:51:03.740Z,13.31
2023-03-18T22:53:35.997Z,13.22
2023-03-18T22:56:10.728Z,13.14
2023-03-18T22:58:39.836Z,13.11
2023-03-18T23:01:08.852Z,13.08
2023-03-18T23:03:40.526Z,13.00
2023-03-18T23:06:10.849Z,12.98
2023-03-18T23:08:39.396Z,13.00
2023-03-18T23:11:09.557Z,12.93
2023-03-18T23:13:40.491Z,12.93
2023-03-18T23:16:14.915Z,12.96
2023-03-18T23:18:43.813Z,12.99
2023-03-18T23:21:16.367Z,12.99
2023-03-18T23:23:45.019Z,12.95
2023-03-18T23:26:15.241Z,12.93
2023-03-18T23:28:45.276Z,12.84
2023-03-18T23:31:14.552Z,12.76
2023-03-18T23:33:43.443Z,12.77
2023-03-18T23:36:15.285Z,12.78
2023-03-18T23:38:44.195Z,12.76
2023-03-18T23:41:14.161Z,12.79
2023-03-18T23:43:42.900Z,12.83
2023-03-18T23:46:12.038Z,12.85
2023-03-18T23:48:40.795Z,12.86
2023-03-18T23:51:09.396Z,12.79
2023-03-18T23:53:38.085Z,12.69
2023-03-18T23:56:07.612Z,12.70
2023-03-18T23:58:37.733Z,12.73
